createdAt,value
2023-03-25T00:02:16.668Z,99877.44
2023-03-25T00:04:43.223Z,99883.78
2023-03-25T00:07:09.657Z,99882.34
2023-03-25T00:09:36.271Z,99878.72
2023-03-25T00:12:02.692Z,99875.81
2023-03-25T00:14:29.162Z,99874.59
2023-03-25T00:16:55.586Z,99874.34
2023-03-25T00:19:22.197Z,99871.03
2023-03-25T00:21:50.406Z,99870.34
2023-03-25T00:24:17.982Z,99863.25
2023-03-25T00:26:46.120Z,99864.72
2023-03-25T00:29:13.364Z,99870.88
2023-03-25T00:31:40.805Z,99875.28
2023-03-25T00:34:07.676Z,99876.91
2023-03-25T00:36:37.556Z,99871.16
2023-03-25T00:39:05.390Z,99860.56
2023-03-25T00:41:32.010Z,99867.00
2023-03-25T00:44:00.014Z,99869.59
2023-03-25T00:46:28.364Z,99881.59
2023-03-25T00:48:55.555Z,99883.03
2023-03-25T00:51:22.891Z,99886.50
2023-03-25T00:53:55.137Z,99882.06
2023-03-25T00:56:23.580Z,99882.88
2023-03-25T00:58:50.421Z,99880.63
2023-03-25T01:01:23.479Z,99894.97
2023-03-25T01:03:57.760Z,99898.22
2023-03-25T01:06:33.188Z,99889.22
2023-03-25T01:09:01.595Z,99892.38
2023-03-25T01:11:30.876Z,99888.84
2023-03-25T01:13:59.698Z,99885.97
2023-03-25T01:16:27.268Z,99879.47
2023-03-25T01:18:55.278Z,99875.41
2023-03-25T01:21:22.016Z,99877.59
2023-03-25T01:23:48.437Z,99875.47
2023-03-25T01:26:15.444Z,99868.16
2023-03-25T01:28:43.154Z,99868.16
2023-03-25T01:31:11.810Z,99865.44
2023-03-25T01:33:38.895Z,99867.84
2023-03-25T01:36:09.722Z,99849.97
2023-03-25T01:38:36.867Z,99842.19
2023-03-25T01:41:04.454Z,99837.13
2023-03-25T01:43:31.845Z,99845.34
2023-03-25T01:45:58.344Z,99831.84
2023-03-25T01:48:32.992Z,99842.47
2023-03-25T01:51:05.569Z,99833.28
2023-03-25T01:53:32.494Z,99832.53
2023-03-25T01:56:03.062Z,99833.75
2023-03-25T01:58:31.304Z,99837.38
2023-03-25T02:00:57.789Z,99837.66
2023-03-25T02:03:25.219Z,99834.78
2023-03-25T02:06:03.597Z,99830.03
2023-03-25T02:08:37.698Z,99825.44
2023-03-25T02:11:06.549Z,99811.97
2023-03-25T02:13:34.809Z,99820.00
2023-03-25T02:16:18.656Z,99814.41
2023-03-25T02:19:27.971Z,99811.47
2023-03-25T02:22:14.613Z,99805.03
2023-03-25T02:41:46.094Z,99789.22
2023-03-25T02:44:18.040Z,99786.63
2023-03-25T02:46:57.148Z,99785.72
2023-03-25T02:49:32.202Z,99781.94
2023-03-25T02:52:04.955Z,99783.69
2023-03-25T02:54:36.923Z,99777.69
2023-03-25T02:57:05.452Z,99783.38
2023-03-25T02:59:33.451Z,99775.66
2023-03-25T03:02:04.757Z,99784.78
2023-03-25T03:04:31.465Z,99786.22
2023-03-25T03:06:58.125Z,99790.44
2023-03-25T03:09:37.143Z,99792.03
2023-03-25T03:12:19.361Z,99786.81
2023-03-25T03:14:56.204Z,99785.47
2023-03-25T03:17:38.098Z,99786.91
2023-03-25T03:20:32.647Z,99801.72
2023-03-25T03:23:10.835Z,99799.00
2023-03-25T03:25:47.076Z,99792.00
2023-03-25T03:28:16.391Z,99789.28
2023-03-25T03:30:49.298Z,99801.34
2023-03-25T03:33:31.987Z,99795.53
2023-03-25T03:36:07.085Z,99799.09
2023-03-25T03:38:39.550Z,99788.00
2023-03-25T03:41:09.580Z,99800.72
2023-03-25T03:43:42.474Z,99793.72
2023-03-25T03:46:16.550Z,99789.88
2023-03-25T03:48:47.811Z,99791.25
2023-03-25T03:51:29.283Z,99794.66
2023-03-25T03:54:03.948Z,99784.16
2023-03-25T03:56:39.222Z,99780.34
2023-03-25T03:59:13.476Z,99780.81
2023-03-25T04:01:47.520Z,99772.50
2023-03-25T04:04:22.217Z,99773.53
2023-03-25T04:06:57.937Z,99773.34
2023-03-25T04:09:55.068Z,99783.91
2023-03-25T04:12:26.219Z,99778.91
2023-03-25T04:14:53.440Z,99783.91
2023-03-25T04:17:19.892Z,99791.69
2023-03-25T04:19:48.773Z,99780.00
2023-03-25T04:22:18.298Z,99785.72
2023-03-25T04:24:44.831Z,99785.28
2023-03-25T04:27:13.579Z,99781.66
2023-03-25T04:29:40.659Z,99780.50
2023-03-25T04:32:08.227Z,99786.63
2023-03-25T04:34:34.626Z,99791.47
2023-03-25T04:37:02.074Z,99782.72
2023-03-25T04:39:29.808Z,99799.91
2023-03-25T04:42:03.267Z,99800.53
2023-03-25T04:44:33.478Z,99781.03
2023-03-25T04:47:01.916Z,99779.94
2023-03-25T04:49:28.332Z,99781.59
2023-03-25T04:51:55.653Z,99782.06
2023-03-25T04:54:23.458Z,99791.94
2023-03-25T04:56:51.657Z,99784.09
2023-03-25T04:59:19.683Z,99790.03
2023-03-25T05:01:46.653Z,99781.03
2023-03-25T05:04:17.450Z,99782.19
2023-03-25T05:06:50.550Z,99781.59
2023-03-25T05:09:20.324Z,99785.06
2023-03-25T05:11:46.720Z,99790.63
2023-03-25T05:14:15.104Z,99781.66
2023-03-25T05:16:42.137Z,99787.63
2023-03-25T05:19:09.523Z,99789.19
2023-03-25T05:21:37.821Z,99780.28
2023-03-25T05:24:08.180Z,99783.09
2023-03-25T05:26:35.240Z,99779.47
2023-03-25T05:29:06.247Z,99778.78
2023-03-25T05:31:32.593Z,99791.16
2023-03-25T05:33:59.036Z,99791.78
2023-03-25T05:36:29.644Z,99788.38
2023-03-25T05:38:56.790Z,99796.50
2023-03-25T05:41:32.417Z,99799.31
2023-03-25T05:44:02.965Z,99798.00
2023-03-25T05:46:29.748Z,99798.00
2023-03-25T05:48:57.484Z,99806.41
2023-03-25T05:51:25.487Z,99804.13
2023-03-25T05:53:51.906Z,99804.34
2023-03-25T05:56:20.125Z,99811.09
2023-03-25T05:58:51.030Z,99815.63
2023-03-25T06:01:31.853Z,99812.16
2023-03-25T06:04:01.655Z,99811.97
2023-03-25T06:06:28.641Z,99820.06
2023-03-25T06:08:55.790Z,99818.41
2023-03-25T06:11:22.231Z,99824.28
2023-03-25T06:13:51.589Z,99820.91
2023-03-25T06:16:23.385Z,99825.25
2023-03-25T06:18:56.008Z,99823.53
2023-03-25T06:21:23.476Z,99828.06
2023-03-25T06:23:50.373Z,99821.03
2023-03-25T06:26:18.004Z,99828.81
2023-03-25T06:28:46.009Z,99827.16
2023-03-25T06:31:26.644Z,99828.38
2023-03-25T06:33:54.627Z,99822.53
2023-03-25T06:36:21.073Z,99828.56
2023-03-25T06:38:50.275Z,99825.72
2023-03-25T06:41:20.570Z,99832.06
2023-03-25T06:43:53.878Z,99826.41
2023-03-25T06:46:46.573Z,99824.50
2023-03-25T06:49:37.910Z,99833.25
2023-03-25T06:52:04.543Z,99826.31
2023-03-25T06:54:30.932Z,99825.38
2023-03-25T06:56:57.370Z,99823.97
2023-03-25T06:59:23.793Z,99826.47
2023-03-25T07:01:50.378Z,99823.50
2023-03-25T07:04:19.074Z,99824.75
2023-03-25T07:06:45.986Z,99823.75
2023-03-25T07:09:12.398Z,99829.25
2023-03-25T07:11:38.833Z,99832.66
2023-03-25T07:14:05.242Z,99829.44
2023-03-25T07:16:32.051Z,99834.19
2023-03-25T07:18:59.055Z,99840.78
2023-03-25T07:21:26.968Z,99837.41
2023-03-25T07:23:53.444Z,99842.38
2023-03-25T07:26:19.841Z,99844.66
2023-03-25T07:28:47.926Z,99835.16
2023-03-25T07:31:16.213Z,99834.97
2023-03-25T07:33:43.362Z,99845.88
2023-03-25T07:36:11.997Z,99848.03
2023-03-25T07:38:38.719Z,99838.25
2023-03-25T07:41:14.333Z,99846.31
2023-03-25T07:43:53.650Z,99844.00
2023-03-25T07:46:27.633Z,99847.94
2023-03-25T07:48:54.035Z,99839.13
2023-03-25T07:51:20.456Z,99848.53
2023-03-25T07:53:46.977Z,99853.13
2023-03-25T07:56:14.701Z,99853.13
2023-03-25T07:58:41.930Z,99847.13
2023-03-25T08:01:08.593Z,99855.06
2023-03-25T08:03:35.220Z,99854.47
2023-03-25T08:06:02.468Z,99856.19
2023-03-25T08:08:31.649Z,99845.72
2023-03-25T08:10:58.527Z,99865.75
2023-03-25T08:13:25.588Z,99857.03
2023-03-25T08:15:52.319Z,99854.19
2023-03-25T08:18:19.489Z,99854.94
2023-03-25T08:20:46.012Z,99857.59
2023-03-25T08:23:12.651Z,99853.75
2023-03-25T08:25:40.952Z,99848.88
2023-03-25T08:28:08.471Z,99856.16
2023-03-25T08:30:38.889Z,99841.88
2023-03-25T08:33:10.167Z,99848.06
2023-03-25T08:35:38.124Z,99844.19
2023-03-25T08:38:06.564Z,99853.09
2023-03-25T08:40:36.447Z,99849.34
2023-03-25T08:43:06.958Z,99839.00
2023-03-25T08:45:34.850Z,99853.72
2023-03-25T08:48:01.689Z,99842.38
2023-03-25T08:50:28.689Z,99846.03
2023-03-25T08:52:58.402Z,99846.41
2023-03-25T08:55:25.766Z,99843.72
2023-03-25T08:57:52.205Z,99845.28
2023-03-25T09:00:24.090Z,99837.44
2023-03-25T09:02:50.983Z,99845.06
2023-03-25T09:05:18.246Z,99848.13
2023-03-25T09:07:44.698Z,99846.16
2023-03-25T09:10:12.992Z,99851.84
2023-03-25T09:12:39.643Z,99847.13
2023-03-25T09:15:06.607Z,99851.84
2023-03-25T09:17:33.058Z,99855.91
2023-03-25T09:19:59.479Z,99858.34
2023-03-25T09:22:25.925Z,99855.59
2023-03-25T09:24:52.400Z,99860.03
2023-03-25T09:27:18.784Z,99849.97
2023-03-25T09:29:45.218Z,99853.38
2023-03-25T09:32:11.665Z,99836.41
2023-03-25T09:34:39.000Z,99845.59
2023-03-25T09:37:05.438Z,99841.72
2023-03-25T09:39:31.900Z,99848.78
2023-03-25T09:42:14.396Z,99844.69
2023-03-25T09:45:15.430Z,99846.84
2023-03-25T09:47:56.683Z,99843.19
2023-03-25T09:50:25.226Z,99840.72
2023-03-25T09:53:06.147Z,99848.84
2023-03-25T09:55:39.038Z,99850.56
2023-03-25T09:58:35.736Z,99855.09
2023-03-25T10:01:27.221Z,99865.19
2023-03-25T10:04:11.461Z,99855.31
2023-03-25T10:06:48.740Z,99848.59
2023-03-25T10:09:34.924Z,99852.16
2023-03-25T10:12:16.675Z,99839.53
2023-03-25T10:15:01.582Z,99844.00
2023-03-25T10:17:58.148Z,99849.72
2023-03-25T10:20:53.474Z,99839.69
2023-03-25T10:23:30.668Z,99865.22
2023-03-25T10:26:07.867Z,99841.66
2023-03-25T10:28:40.455Z,99838.84
2023-03-25T10:31:22.019Z,99830.00
2023-03-25T10:33:56.139Z,99841.03
2023-03-25T10:36:33.727Z,99834.59
2023-03-25T10:39:02.027Z,99828.06
2023-03-25T10:41:35.450Z,99830.41
2023-03-25T10:44:02.167Z,99831.03
2023-03-25T10:46:46.740Z,99821.94
2023-03-25T10:49:17.359Z,99828.25
2023-03-25T10:51:44.450Z,99826.25
2023-03-25T10:54:13.740Z,99819.97
2023-03-25T10:56:45.660Z,99815.84
2023-03-25T10:59:27.974Z,99819.47
2023-03-25T11:01:55.703Z,99810.06
2023-03-25T11:04:35.828Z,99815.31
2023-03-25T11:07:05.768Z,99810.88
2023-03-25T11:09:32.725Z,99816.81
2023-03-25T11:12:05.498Z,99810.22
2023-03-25T11:14:40.606Z,99815.84
2023-03-25T11:17:18.124Z,99811.38
2023-03-25T11:19:53.711Z,99819.78
2023-03-25T11:22:26.283Z,99819.31
2023-03-25T11:25:00.670Z,99816.50
2023-03-25T11:27:30.175Z,99813.59
2023-03-25T11:30:02.801Z,99814.44
2023-03-25T11:32:38.755Z,99796.78
2023-03-25T11:35:14.200Z,99796.09
2023-03-25T11:37:47.153Z,99806.22
2023-03-25T11:40:16.399Z,99804.69
2023-03-25T11:42:51.256Z,99798.25
2023-03-25T11:45:46.138Z,99802.75
2023-03-25T11:48:17.989Z,99791.50
2023-03-25T11:50:52.202Z,99790.19
2023-03-25T11:53:19.830Z,99777.31
2023-03-25T11:55:53.920Z,99783.06
2023-03-25T11:58:27.300Z,99762.25
2023-03-25T12:01:02.196Z,99763.38
2023-03-25T12:03:31.864Z,99774.16
2023-03-25T12:06:06.920Z,99776.78
2023-03-25T12:08:51.957Z,99783.75
2023-03-25T12:11:26.381Z,99782.75
2023-03-25T12:14:12.255Z,99774.16
2023-03-25T12:16:50.904Z,99773.81
2023-03-25T12:19:55.881Z,99756.47
2023-03-25T12:22:47.179Z,99764.72
2023-03-25T12:25:19.404Z,99763.25
2023-03-25T12:28:05.207Z,99758.94
2023-03-25T12:30:54.596Z,99773.31
2023-03-25T12:33:39.661Z,99756.47
2023-03-25T12:36:49.735Z,99745.88
2023-03-25T12:39:43.473Z,99756.47
2023-03-25T12:42:34.972Z,99750.50
2023-03-25T12:45:35.343Z,99755.94
2023-03-25T12:48:07.574Z,99738.44
2023-03-25T12:50:50.100Z,99740.41
2023-03-25T12:53:27.584Z,99755.69
2023-03-25T12:56:14.168Z,99766.06
2023-03-25T12:58:57.166Z,99812.97
2023-03-25T13:01:36.738Z,99798.47
2023-03-25T13:04:22.671Z,99780.22
2023-03-25T13:07:04.700Z,99769.69
2023-03-25T13:09:36.287Z,99772.94
2023-03-25T13:12:07.300Z,99768.47
2023-03-25T13:14:36.179Z,99786.19
2023-03-25T13:17:09.053Z,99796.06
2023-03-25T13:19:41.156Z,99792.25
2023-03-25T13:22:20.673Z,99777.13
2023-03-25T13:24:56.566Z,99767.19
2023-03-25T13:27:23.547Z,99773.53
2023-03-25T13:29:54.543Z,99792.19
2023-03-25T13:32:25.598Z,99797.38
2023-03-25T13:34:56.845Z,99801.72
2023-03-25T13:37:32.029Z,99794.56
2023-03-25T13:40:14.683Z,99772.28
2023-03-25T13:42:49.843Z,99760.22
2023-03-25T13:45:23.969Z,99774.19
2023-03-25T13:47:58.360Z,99760.47
2023-03-25T13:50:29.782Z,99762.25
2023-03-25T13:53:14.860Z,99759.13
2023-03-25T13:55:46.555Z,99767.28
2023-03-25T13:58:41.454Z,99772.19
2023-03-25T14:01:28.889Z,99771.16
2023-03-25T14:04:18.729Z,99775.47
2023-03-25T14:07:22.896Z,99780.78
2023-03-25T14:10:09.044Z,99780.50
2023-03-25T14:12:43.087Z,99778.47
2023-03-25T14:15:19.267Z,99770.81
2023-03-25T14:17:47.036Z,99770.88
2023-03-25T14:20:24.376Z,99768.94
2023-03-25T14:22:56.957Z,99766.34
2023-03-25T14:25:34.025Z,99762.06
2023-03-25T14:28:03.535Z,99758.13
2023-03-25T14:30:32.384Z,99753.13
2023-03-25T14:33:00.749Z,99741.28
2023-03-25T14:35:33.223Z,99746.56
2023-03-25T14:38:05.839Z,99733.72
2023-03-25T14:40:58.917Z,99740.72
2023-03-25T14:43:40.288Z,99734.50
2023-03-25T14:46:19.037Z,99737.22
2023-03-25T14:48:50.209Z,99726.41
2023-03-25T14:51:44.662Z,99727.69
2023-03-25T14:54:22.589Z,99738.31
2023-03-25T14:56:55.695Z,99732.22
2023-03-25T14:59:28.934Z,99726.38
2023-03-25T15:02:03.135Z,99722.09
2023-03-25T15:04:38.891Z,99726.72
2023-03-25T15:07:12.825Z,99726.72
2023-03-25T15:09:50.924Z,99723.47
2023-03-25T15:12:21.450Z,99719.53
2023-03-25T15:14:49.745Z,99716.66
2023-03-25T15:17:47.130Z,99707.53
2023-03-25T15:20:22.443Z,99707.69
2023-03-25T15:23:19.913Z,99711.84
2023-03-25T15:25:48.399Z,99715.28
2023-03-25T15:28:40.921Z,99716.63
2023-03-25T15:31:41.986Z,99711.50
2023-03-25T15:34:30.740Z,99705.25
2023-03-25T15:37:18.058Z,99710.69
2023-03-25T15:39:59.817Z,99718.38
2023-03-25T15:42:57.585Z,99712.75
2023-03-25T15:46:01.578Z,99710.47
2023-03-25T15:49:05.926Z,99714.81
2023-03-25T15:52:11.527Z,99708.66
2023-03-25T15:54:48.158Z,99710.78
2023-03-25T15:57:38.142Z,99726.13
2023-03-25T16:00:15.649Z,99733.16
2023-03-25T16:02:59.890Z,99765.72
2023-03-25T16:05:27.065Z,99763.56
2023-03-25T16:07:53.974Z,99762.94
2023-03-25T16:10:36.078Z,99772.03
2023-03-25T16:13:05.432Z,99769.31
2023-03-25T16:15:35.354Z,99754.66
2023-03-25T16:18:06.171Z,99754.72
2023-03-25T16:20:34.973Z,99747.28
2023-03-25T16:23:03.426Z,99752.44
2023-03-25T16:25:38.800Z,99758.31
2023-03-25T16:28:14.129Z,99755.03
2023-03-25T16:30:43.016Z,99754.53
2023-03-25T16:33:10.661Z,99743.97
2023-03-25T16:35:42.576Z,99741.88
2023-03-25T16:38:14.644Z,99740.06
2023-03-25T16:40:43.356Z,99737.28
2023-03-25T16:43:22.187Z,99748.50
2023-03-25T16:45:51.052Z,99741.97
2023-03-25T16:48:39.654Z,99753.25
2023-03-25T16:51:22.717Z,99749.03
2023-03-25T16:53:53.580Z,99750.94
2023-03-25T16:56:23.360Z,99752.78
2023-03-25T16:59:18.704Z,99744.53
2023-03-25T17:01:53.371Z,99746.53
2023-03-25T17:04:22.846Z,99762.72
2023-03-25T17:06:52.656Z,99781.81
2023-03-25T17:09:22.680Z,99777.88
2023-03-25T17:11:54.016Z,99766.94
2023-03-25T17:14:24.856Z,99766.94
2023-03-25T17:16:53.017Z,99775.84
2023-03-25T17:19:23.040Z,99776.34
2023-03-25T17:22:05.382Z,99772.66
2023-03-25T17:24:41.787Z,99773.56
2023-03-25T17:27:23.352Z,99782.50
2023-03-25T17:29:56.264Z,99784.66
2023-03-25T17:32:23.458Z,99780.22
2023-03-25T17:34:58.023Z,99778.53
2023-03-25T17:37:25.799Z,99781.13
2023-03-25T17:39:52.827Z,99775.84
2023-03-25T17:42:24.559Z,99786.22
2023-03-25T17:44:52.121Z,99779.25
2023-03-25T17:47:20.365Z,99783.84
2023-03-25T17:49:47.728Z,99786.41
2023-03-25T17:52:14.138Z,99783.03
2023-03-25T17:54:40.592Z,99784.34
2023-03-25T17:57:13.918Z,99786.63
2023-03-25T17:59:40.532Z,99782.88
2023-03-25T18:02:15.889Z,99781.03
2023-03-25T18:04:42.338Z,99785.09
2023-03-25T18:07:08.738Z,99779.38
2023-03-25T18:09:35.262Z,99789.34
2023-03-25T18:12:01.802Z,99783.94
2023-03-25T18:14:28.258Z,99781.75
2023-03-25T18:16:55.476Z,99772.22
2023-03-25T18:19:24.872Z,99772.94
2023-03-25T18:21:52.380Z,99770.78
2023-03-25T18:24:18.938Z,99773.91
2023-03-25T18:26:46.773Z,99771.69
2023-03-25T18:29:23.117Z,99778.00
2023-03-25T18:31:50.455Z,99777.28
2023-03-25T18:34:17.944Z,99783.72
2023-03-25T18:36:44.793Z,99779.16
2023-03-25T18:39:13.813Z,99773.56
2023-03-25T18:41:41.148Z,99773.66
2023-03-25T18:44:08.405Z,99779.69
2023-03-25T18:46:35.391Z,99768.41
2023-03-25T18:49:02.764Z,99777.53
2023-03-25T18:51:30.044Z,99767.34
2023-03-25T18:53:56.856Z,99780.41
2023-03-25T18:56:25.281Z,99767.97
2023-03-25T18:58:52.632Z,99782.59
2023-03-25T19:01:20.532Z,99799.66
2023-03-25T19:03:47.841Z,99800.69
2023-03-25T19:06:14.627Z,99813.81
2023-03-25T19:08:44.005Z,99824.22
2023-03-25T19:11:19.894Z,99830.63
2023-03-25T19:13:47.207Z,99823.66
2023-03-25T19:16:13.631Z,99812.34
2023-03-25T19:18:40.203Z,99818.69
2023-03-25T19:21:07.111Z,99818.69
2023-03-25T19:23:35.071Z,99795.81
2023-03-25T19:26:01.453Z,99775.78
2023-03-25T19:28:27.945Z,99777.47
2023-03-25T19:30:58.538Z,99785.31
2023-03-25T19:33:24.945Z,99792.19
2023-03-25T19:35:55.257Z,99793.50
2023-03-25T19:38:25.728Z,99787.75
2023-03-25T19:41:02.255Z,99780.13
2023-03-25T19:43:29.150Z,99783.22
2023-03-25T19:45:56.489Z,99783.22
2023-03-25T19:48:22.910Z,99780.50
2023-03-25T19:50:49.445Z,99774.41
2023-03-25T19:53:15.936Z,99779.06
2023-03-25T19:55:43.909Z,99768.44
2023-03-25T19:58:10.981Z,99774.97
2023-03-25T20:00:38.406Z,99772.16
2023-03-25T20:03:04.914Z,99774.78
2023-03-25T20:05:32.326Z,99766.34
2023-03-25T20:07:59.151Z,99765.50
2023-03-25T20:10:30.641Z,99774.34
2023-03-25T20:12:57.833Z,99759.78
2023-03-25T20:15:25.345Z,99763.19
2023-03-25T20:17:53.978Z,99764.06
2023-03-25T20:20:21.470Z,99774.34
2023-03-25T20:22:48.502Z,99769.88
2023-03-25T20:25:15.806Z,99770.72
2023-03-25T20:27:43.299Z,99768.16
2023-03-25T20:30:12.919Z,99760.69
2023-03-25T20:32:42.512Z,99770.31
2023-03-25T20:35:12.451Z,99764.47
2023-03-25T20:37:40.414Z,99760.25
2023-03-25T20:40:11.240Z,99762.41
2023-03-25T20:42:38.789Z,99766.00
2023-03-25T20:45:05.833Z,99761.03
2023-03-25T20:47:32.652Z,99760.91
2023-03-25T20:49:59.078Z,99768.06
2023-03-25T20:52:25.742Z,99765.06
2023-03-25T20:54:53.086Z,99770.31
2023-03-25T20:57:19.523Z,99768.41
2023-03-25T20:59:46.106Z,99772.34
2023-03-25T21:02:12.566Z,99771.81
2023-03-25T21:04:38.973Z,99774.31
2023-03-25T21:07:05.893Z,99790.59
2023-03-25T21:09:32.495Z,99778.44
2023-03-25T21:11:58.885Z,99775.16
2023-03-25T21:14:25.628Z,99775.28
2023-03-25T21:16:54.225Z,99780.03
2023-03-25T21:19:21.128Z,99779.13
2023-03-25T21:21:47.526Z,99777.25
2023-03-25T21:24:16.648Z,99778.16
2023-03-25T21:26:43.084Z,99768.16
2023-03-25T21:29:09.479Z,99772.09
2023-03-25T21:31:36.172Z,99767.56
2023-03-25T21:34:02.705Z,99768.16
2023-03-25T21:36:29.718Z,99764.00
2023-03-25T21:38:58.350Z,99762.38
2023-03-25T21:41:26.151Z,99760.94
2023-03-25T21:43:53.263Z,99757.94
2023-03-25T21:46:24.233Z,99757.72
2023-03-25T21:48:51.293Z,99763.78
2023-03-25T21:51:18.216Z,99760.19
2023-03-25T21:53:47.521Z,99760.00
2023-03-25T21:56:17.396Z,99758.16
2023-03-25T21:58:45.097Z,99755.25
2023-03-25T22:01:14.417Z,99761.38
2023-03-25T22:03:45.204Z,99760.28
2023-03-25T22:06:17.738Z,99759.84
2023-03-25T22:08:44.557Z,99763.97
2023-03-25T22:11:14.122Z,99755.25
2023-03-25T22:13:41.249Z,99761.50
2023-03-25T22:16:09.142Z,99754.44
2023-03-25T22:18:36.874Z,99756.19
2023-03-25T22:21:07.319Z,99755.91
2023-03-25T22:23:34.312Z,99747.72
2023-03-25T22:26:00.699Z,99754.59
2023-03-25T22:28:27.116Z,99755.53
2023-03-25T22:30:53.681Z,99756.25
2023-03-25T22:33:20.910Z,99749.91
2023-03-25T22:35:47.321Z,99762.75
2023-03-25T22:38:14.741Z,99766.94
2023-03-25T22:40:41.131Z,99768.16
2023-03-25T22:43:10.649Z,99768.47
2023-03-25T22:45:37.043Z,99771.28
2023-03-25T22:48:03.789Z,99766.81
2023-03-25T22:50:31.424Z,99764.31
2023-03-25T22:52:57.858Z,99768.47
2023-03-25T22:55:24.273Z,99767.41
2023-03-25T22:57:50.754Z,99771.44
2023-03-25T23:00:18.036Z,99773.25
2023-03-25T23:02:46.831Z,99768.16
2023-03-25T23:05:14.753Z,99779.59
2023-03-25T23:07:41.344Z,99768.53
2023-03-25T23:10:08.069Z,99776.78
2023-03-25T23:12:34.647Z,99777.06
2023-03-25T23:15:01.783Z,99768.41
2023-03-25T23:17:28.236Z,99781.28
2023-03-25T23:19:54.862Z,99781.44
2023-03-25T23:22:22.171Z,99780.34
2023-03-25T23:24:48.582Z,99770.94
2023-03-25T23:27:15.279Z,99784.03
2023-03-25T23:29:41.803Z,99782.66
2023-03-25T23:32:09.458Z,99792.75
2023-03-25T23:34:36.557Z,99789.13
2023-03-25T23:37:03.239Z,99779.63
2023-03-25T23:39:30.345Z,99792.94
2023-03-25T23:41:57.116Z,99793.28
2023-03-25T23:44:23.529Z,99796.13
2023-03-25T23:46:51.229Z,99802.56
2023-03-25T23:49:20.611Z,99801.91
2023-03-25T23:51:47.445Z,99809.56
2023-03-25T23:54:15.311Z,99808.59
2023-03-25T23:56:42.838Z,99811.44
2023-03-25T23:59:11.630Z,99804.59
